createdAt,value
2022-12-31T00:55:04.616Z,772.00
2022-12-31T00:56:04.501Z,760.00
2022-12-31T00:57:04.481Z,744.00
2022-12-31T00:58:04.365Z,742.00
2022-12-31T00:59:04.297Z,747.00
2022-12-31T01:00:04.376Z,753.00
2022-12-31T01:01:04.387Z,758.00
2022-12-31T01:02:12.984Z,758.00
2022-12-31T01:03:04.147Z,760.00
2022-12-31T01:04:03.896Z,761.00
2022-12-31T01:05:03.799Z,759.00
2022-12-31T01:06:03.734Z,759.00
2022-12-31T01:07:03.608Z,759.00
2022-12-31T01:08:03.553Z,757.00
2022-12-31T01:09:03.456Z,756.00
2022-12-31T01:10:03.341Z,753.00
2022-12-31T01:11:03.243Z,753.00
2022-12-31T01:12:03.172Z,751.00
2022-12-31T01:13:03.052Z,754.00
2022-12-31T01:14:02.986Z,754.00
2022-12-31T01:15:02.893Z,751.00
2022-12-31T01:16:02.862Z,747.00
2022-12-31T01:17:02.696Z,746.00
2022-12-31T01:18:02.671Z,747.00
2022-12-31T01:19:02.513Z,747.00
2022-12-31T01:20:02.454Z,745.00
2022-12-31T01:21:02.335Z,748.00
2022-12-31T01:22:02.286Z,747.00
2022-12-31T01:23:02.142Z,747.00
2022-12-31T01:24:02.092Z,748.00
2022-12-31T01:25:01.992Z,750.00
2022-12-31T01:26:01.884Z,748.00
2022-12-31T01:27:01.781Z,745.00
2022-12-31T01:28:01.713Z,743.00
2022-12-31T01:29:01.640Z,742.00
2022-12-31T01:30:01.513Z,739.00
2022-12-31T01:31:01.453Z,739.00
2022-12-31T01:32:01.357Z,739.00
2022-12-31T01:33:01.231Z,737.00
2022-12-31T01:34:01.179Z,736.00
2022-12-31T01:35:01.067Z,737.00
2022-12-31T01:36:01.265Z,739.00
2022-12-31T01:37:00.898Z,740.00
2022-12-31T01:38:00.847Z,739.00
2022-12-31T01:39:00.752Z,740.00
2022-12-31T01:40:00.653Z,739.00
2022-12-31T01:41:00.534Z,739.00
2022-12-31T01:42:00.494Z,738.00
2022-12-31T01:43:00.355Z,739.00
2022-12-31T01:44:00.299Z,738.00
2022-12-31T01:45:00.228Z,741.00
2022-12-31T01:46:00.198Z,740.00
2022-12-31T01:47:00.040Z,738.00
2022-12-31T01:47:59.931Z,736.00
2022-12-31T01:48:59.820Z,735.00
2022-12-31T01:49:59.757Z,736.00
2022-12-31T01:50:59.643Z,737.00
2022-12-31T01:51:59.538Z,734.00
2022-12-31T01:52:59.460Z,731.00
2022-12-31T01:53:59.388Z,727.00
2022-12-31T01:54:59.279Z,727.00
2022-12-31T01:55:59.211Z,723.00
2022-12-31T01:56:59.093Z,726.00
2022-12-31T01:57:59.027Z,725.00
2022-12-31T01:58:58.922Z,723.00
2022-12-31T01:59:58.812Z,723.00
2022-12-31T02:00:58.754Z,722.00
2022-12-31T02:01:58.948Z,723.00
2022-12-31T02:02:58.624Z,727.00
2022-12-31T02:03:58.476Z,729.00
2022-12-31T02:04:58.372Z,726.00
2022-12-31T02:05:58.279Z,726.00
2022-12-31T02:06:58.157Z,725.00
2022-12-31T02:07:58.088Z,724.00
2022-12-31T02:08:57.986Z,723.00
2022-12-31T02:09:57.892Z,723.00
2022-12-31T02:10:57.794Z,721.00
2022-12-31T02:11:57.707Z,721.00
2022-12-31T02:12:57.624Z,721.00
2022-12-31T02:13:58.755Z,723.00
2022-12-31T02:14:57.435Z,723.00
2022-12-31T02:15:57.384Z,722.00
2022-12-31T02:16:57.231Z,721.00
2022-12-31T02:17:57.152Z,720.00
2022-12-31T02:18:57.042Z,718.00
2022-12-31T02:19:57.009Z,717.00
2022-12-31T02:20:56.900Z,717.00
2022-12-31T02:21:56.801Z,716.00
2022-12-31T02:22:56.699Z,716.00
2022-12-31T02:23:56.629Z,715.00
2022-12-31T02:24:56.521Z,717.00
2022-12-31T02:25:56.420Z,718.00
2022-12-31T02:26:56.341Z,718.00
2022-12-31T02:27:56.267Z,718.00
2022-12-31T02:28:56.161Z,718.00
2022-12-31T02:29:56.092Z,718.00
2022-12-31T02:30:56.005Z,716.00
2022-12-31T02:31:55.901Z,715.00
2022-12-31T02:32:55.796Z,714.00
2022-12-31T02:33:55.724Z,716.00
2022-12-31T02:34:55.624Z,715.00
2022-12-31T02:35:55.532Z,715.00
2022-12-31T02:36:55.426Z,716.00
2022-12-31T02:37:55.389Z,717.00
2022-12-31T02:38:55.275Z,718.00
2022-12-31T02:39:55.184Z,717.00
2022-12-31T02:40:55.067Z,716.00
2022-12-31T02:41:55.019Z,715.00
2022-12-31T02:42:55.696Z,714.00
2022-12-31T02:43:54.831Z,714.00
2022-12-31T02:44:54.716Z,712.00
2022-12-31T02:45:54.677Z,710.00
2022-12-31T02:46:54.602Z,709.00
2022-12-31T02:47:54.463Z,707.00
2022-12-31T02:48:54.376Z,708.00
2022-12-31T02:49:54.300Z,706.00
2022-12-31T02:50:54.228Z,705.00
2022-12-31T02:51:54.145Z,705.00
2022-12-31T02:52:54.022Z,703.00
2022-12-31T02:53:53.950Z,702.00
2022-12-31T02:54:53.867Z,703.00
2022-12-31T02:55:53.770Z,705.00
2022-12-31T02:56:53.687Z,706.00
2022-12-31T02:57:53.627Z,708.00
2022-12-31T02:58:53.531Z,707.00
2022-12-31T02:59:53.451Z,706.00
2022-12-31T03:00:53.407Z,705.00
2022-12-31T03:01:53.340Z,706.00
2022-12-31T03:02:53.227Z,709.00
2022-12-31T03:03:53.100Z,708.00
2022-12-31T03:04:52.993Z,707.00
2022-12-31T03:05:52.939Z,705.00
2022-12-31T03:06:52.833Z,703.00
2022-12-31T03:07:52.734Z,700.00
2022-12-31T03:08:52.615Z,701.00
2022-12-31T03:09:52.590Z,699.00
2022-12-31T03:10:52.460Z,699.00
2022-12-31T03:11:52.391Z,701.00
2022-12-31T03:12:52.296Z,702.00
2022-12-31T03:13:52.265Z,703.00
2022-12-31T03:14:52.145Z,702.00
2022-12-31T03:15:52.147Z,702.00
2022-12-31T03:16:51.954Z,700.00
2022-12-31T03:17:51.899Z,697.00
2022-12-31T03:18:51.773Z,697.00
2022-12-31T03:19:51.722Z,698.00
2022-12-31T03:20:51.624Z,696.00
2022-12-31T03:21:51.566Z,695.00
2022-12-31T03:22:51.437Z,695.00
2022-12-31T03:23:51.397Z,692.00
2022-12-31T03:24:51.268Z,692.00
2022-12-31T03:25:51.227Z,692.00
2022-12-31T03:26:51.126Z,695.00
2022-12-31T03:27:51.077Z,693.00
2022-12-31T03:28:50.970Z,693.00
2022-12-31T03:29:50.902Z,692.00
2022-12-31T03:30:50.801Z,692.00
2022-12-31T03:31:50.760Z,690.00
2022-12-31T03:32:50.590Z,690.00
2022-12-31T03:33:50.584Z,690.00
2022-12-31T03:34:50.436Z,689.00
2022-12-31T03:35:50.372Z,692.00
2022-12-31T03:36:50.255Z,692.00
2022-12-31T03:37:50.234Z,694.00
2022-12-31T03:38:52.840Z,694.00
2022-12-31T03:39:50.042Z,693.00
2022-12-31T03:40:49.919Z,696.00
2022-12-31T03:41:49.879Z,697.00
2022-12-31T03:42:49.747Z,695.00
2022-12-31T03:43:49.729Z,694.00
2022-12-31T03:44:49.613Z,690.00
2022-12-31T03:45:49.569Z,687.00
2022-12-31T03:46:49.401Z,685.00
2022-12-31T03:47:49.382Z,683.00
2022-12-31T03:48:49.258Z,685.00
2022-12-31T03:49:49.209Z,687.00
2022-12-31T03:50:49.081Z,689.00
2022-12-31T03:51:49.054Z,689.00
2022-12-31T03:52:48.915Z,688.00
2022-12-31T03:53:48.866Z,691.00
2022-12-31T03:54:48.737Z,689.00
2022-12-31T03:55:48.696Z,689.00
2022-12-31T03:56:49.594Z,689.00
2022-12-31T03:57:48.528Z,689.00
2022-12-31T03:58:48.407Z,690.00
2022-12-31T03:59:48.383Z,692.00
2022-12-31T04:00:48.333Z,690.00
2022-12-31T04:01:48.259Z,690.00
2022-12-31T04:02:48.082Z,688.00
2022-12-31T04:03:48.044Z,686.00
2022-12-31T04:04:47.931Z,687.00
2022-12-31T04:05:47.863Z,685.00
2022-12-31T04:06:47.746Z,686.00
2022-12-31T04:07:47.697Z,687.00
2022-12-31T04:08:47.595Z,686.00
2022-12-31T04:09:47.528Z,686.00
2022-12-31T04:10:47.393Z,684.00
2022-12-31T04:11:47.345Z,686.00
2022-12-31T04:12:47.242Z,685.00
2022-12-31T04:13:47.202Z,684.00
2022-12-31T04:14:47.118Z,682.00
2022-12-31T04:15:47.048Z,681.00
2022-12-31T04:16:46.939Z,684.00
2022-12-31T04:17:46.874Z,685.00
2022-12-31T04:18:46.789Z,684.00
2022-12-31T04:19:46.707Z,686.00
2022-12-31T04:20:46.587Z,683.00
2022-12-31T04:21:46.595Z,684.00
2022-12-31T04:22:46.480Z,684.00
2022-12-31T04:23:46.352Z,686.00
2022-12-31T04:24:46.246Z,687.00
2022-12-31T04:25:46.222Z,687.00
2022-12-31T04:26:46.085Z,687.00
2022-12-31T04:27:46.026Z,686.00
2022-12-31T04:28:45.904Z,684.00
2022-12-31T04:29:45.848Z,682.00
2022-12-31T04:30:45.725Z,681.00
2022-12-31T04:31:45.724Z,681.00
2022-12-31T04:32:45.555Z,682.00
2022-12-31T04:33:45.516Z,681.00
2022-12-31T04:34:45.422Z,679.00
2022-12-31T04:35:45.340Z,680.00
2022-12-31T04:36:45.220Z,682.00
2022-12-31T04:37:45.165Z,683.00
2022-12-31T04:38:45.065Z,681.00
2022-12-31T04:39:45.007Z,681.00
2022-12-31T04:40:44.861Z,679.00
2022-12-31T04:41:44.857Z,679.00
2022-12-31T04:42:44.750Z,680.00
2022-12-31T04:43:44.693Z,680.00
2022-12-31T04:44:44.578Z,685.00
2022-12-31T04:45:44.507Z,682.00
2022-12-31T04:46:44.384Z,682.00
2022-12-31T04:47:44.332Z,682.00
2022-12-31T04:48:44.249Z,685.00
2022-12-31T04:49:44.168Z,681.00
2022-12-31T04:50:44.036Z,680.00
2022-12-31T04:51:44.044Z,682.00
2022-12-31T04:52:43.949Z,683.00
2022-12-31T04:53:43.826Z,683.00
2022-12-31T04:54:43.711Z,685.00
2022-12-31T04:55:43.673Z,687.00
2022-12-31T04:56:43.561Z,688.00
2022-12-31T04:57:43.470Z,686.00
2022-12-31T04:58:43.371Z,691.00
2022-12-31T04:59:43.316Z,691.00
2022-12-31T05:00:43.214Z,690.00
2022-12-31T05:01:43.222Z,691.00
2022-12-31T05:02:43.196Z,694.00
2022-12-31T05:03:42.971Z,693.00
2022-12-31T05:04:42.856Z,695.00
2022-12-31T05:05:42.831Z,694.00
2022-12-31T05:06:42.693Z,694.00
2022-12-31T05:07:42.638Z,694.00
2022-12-31T05:08:42.528Z,694.00
2022-12-31T05:09:42.468Z,694.00
2022-12-31T05:10:42.364Z,695.00
2022-12-31T05:11:42.306Z,696.00
2022-12-31T05:12:42.231Z,696.00
2022-12-31T05:13:42.131Z,697.00
2022-12-31T05:14:42.011Z,695.00
2022-12-31T05:15:41.959Z,696.00
2022-12-31T05:16:41.841Z,697.00
2022-12-31T05:17:41.844Z,697.00
2022-12-31T05:18:41.681Z,697.00
2022-12-31T05:19:41.674Z,698.00
2022-12-31T05:20:41.532Z,699.00
2022-12-31T05:21:41.460Z,696.00
2022-12-31T05:22:41.340Z,697.00
2022-12-31T05:23:41.312Z,695.00
2022-12-31T05:24:41.172Z,695.00
2022-12-31T05:25:41.141Z,694.00
2022-12-31T05:26:41.017Z,693.00
2022-12-31T05:27:40.969Z,694.00
2022-12-31T05:28:40.847Z,693.00
2022-12-31T05:29:40.792Z,690.00
2022-12-31T05:30:40.682Z,689.00
2022-12-31T05:31:40.625Z,689.00
2022-12-31T05:32:40.545Z,690.00
2022-12-31T05:33:40.454Z,690.00
2022-12-31T05:34:40.324Z,690.00
2022-12-31T05:35:40.278Z,687.00
2022-12-31T05:36:40.132Z,686.00
2022-12-31T05:37:40.137Z,688.00
2022-12-31T05:38:39.986Z,690.00
2022-12-31T05:39:39.920Z,687.00
2022-12-31T05:40:39.832Z,685.00
2022-12-31T05:41:39.785Z,687.00
2022-12-31T05:42:39.649Z,688.00
2022-12-31T05:43:39.563Z,685.00
2022-12-31T05:44:39.460Z,682.00
2022-12-31T05:45:39.410Z,682.00
2022-12-31T05:46:39.314Z,683.00
2022-12-31T05:47:39.269Z,683.00
2022-12-31T05:48:39.159Z,684.00
2022-12-31T05:49:39.103Z,686.00
2022-12-31T05:50:38.977Z,687.00
2022-12-31T05:51:38.950Z,683.00
2022-12-31T05:52:38.910Z,682.00
2022-12-31T05:53:38.776Z,681.00
2022-12-31T05:54:38.648Z,683.00
2022-12-31T05:55:38.623Z,682.00
2022-12-31T05:56:38.488Z,680.00
2022-12-31T05:57:38.431Z,683.00
2022-12-31T05:58:38.331Z,684.00
2022-12-31T05:59:38.311Z,685.00
2022-12-31T06:00:38.165Z,685.00
2022-12-31T06:01:38.150Z,684.00
2022-12-31T06:02:38.088Z,682.00
2022-12-31T06:03:37.994Z,682.00
2022-12-31T06:04:37.854Z,680.00
2022-12-31T06:05:37.771Z,682.00
2022-12-31T06:06:37.666Z,684.00
2022-12-31T06:07:37.670Z,684.00
2022-12-31T06:08:37.511Z,685.00
2022-12-31T06:09:37.498Z,683.00
2022-12-31T06:10:37.365Z,684.00
2022-12-31T06:11:37.337Z,685.00
2022-12-31T06:12:37.225Z,682.00
2022-12-31T06:13:37.176Z,680.00
2022-12-31T06:14:42.203Z,683.00
2022-12-31T06:15:38.063Z,683.00
2022-12-31T06:16:36.907Z,681.00
2022-12-31T06:17:36.867Z,681.00
2022-12-31T06:18:36.729Z,683.00
2022-12-31T06:19:36.721Z,683.00
2022-12-31T06:20:36.575Z,682.00
2022-12-31T06:21:36.551Z,683.00
2022-12-31T06:22:36.423Z,683.00
2022-12-31T06:23:36.393Z,683.00
2022-12-31T06:24:36.275Z,683.00
2022-12-31T06:25:36.266Z,681.00
2022-12-31T06:26:36.133Z,682.00
2022-12-31T06:27:36.052Z,684.00
2022-12-31T06:28:35.926Z,682.00
2022-12-31T06:29:35.902Z,682.00
2022-12-31T06:30:35.806Z,680.00
2022-12-31T06:31:35.747Z,678.00
2022-12-31T06:32:35.610Z,679.00
2022-12-31T06:33:35.572Z,681.00
2022-12-31T06:34:35.475Z,681.00
2022-12-31T06:35:35.416Z,680.00
2022-12-31T06:36:35.298Z,676.00
2022-12-31T06:37:35.287Z,676.00
2022-12-31T06:38:35.166Z,677.00
2022-12-31T06:39:35.099Z,675.00
2022-12-31T06:40:35.000Z,675.00
2022-12-31T06:41:34.924Z,677.00
2022-12-31T06:42:34.829Z,680.00
2022-12-31T06:43:34.749Z,685.00
2022-12-31T06:44:34.659Z,685.00
2022-12-31T06:45:34.605Z,683.00
2022-12-31T06:46:34.540Z,682.00
2022-12-31T06:47:34.428Z,681.00
2022-12-31T06:48:34.310Z,681.00
2022-12-31T06:49:34.269Z,681.00
2022-12-31T06:50:34.119Z,681.00
2022-12-31T06:51:34.089Z,682.00
2022-12-31T06:52:33.973Z,678.00
2022-12-31T06:53:33.898Z,676.00
2022-12-31T06:54:33.789Z,676.00
2022-12-31T06:55:33.708Z,674.00
2022-12-31T06:56:35.018Z,673.00
2022-12-31T06:57:33.516Z,672.00
2022-12-31T06:58:33.393Z,671.00
2022-12-31T06:59:33.352Z,670.00
2022-12-31T07:00:33.222Z,671.00
2022-12-31T07:01:33.239Z,670.00
2022-12-31T07:02:40.150Z,670.00
2022-12-31T07:03:32.945Z,672.00
2022-12-31T07:04:32.883Z,674.00
2022-12-31T07:05:32.782Z,675.00
2022-12-31T07:06:32.716Z,673.00
2022-12-31T07:07:32.595Z,673.00
2022-12-31T07:08:32.506Z,672.00
2022-12-31T07:09:32.411Z,672.00
2022-12-31T07:10:32.337Z,672.00
2022-12-31T07:11:32.231Z,671.00
2022-12-31T07:12:32.123Z,670.00
2022-12-31T07:13:32.042Z,673.00
2022-12-31T07:14:31.950Z,674.00
2022-12-31T07:15:31.817Z,674.00
2022-12-31T07:16:31.771Z,675.00
2022-12-31T07:17:31.624Z,674.00
2022-12-31T07:18:31.509Z,674.00
2022-12-31T07:19:31.399Z,674.00
2022-12-31T07:20:31.323Z,674.00
2022-12-31T07:21:31.185Z,676.00
2022-12-31T07:22:31.124Z,676.00
2022-12-31T07:23:30.972Z,678.00
2022-12-31T07:24:30.926Z,681.00
2022-12-31T07:25:30.800Z,680.00
2022-12-31T07:26:30.711Z,678.00
2022-12-31T07:27:30.579Z,677.00
2022-12-31T07:28:30.519Z,675.00
2022-12-31T07:29:30.381Z,673.00
2022-12-31T07:30:30.304Z,671.00
2022-12-31T07:31:30.215Z,671.00
2022-12-31T07:32:30.120Z,674.00
2022-12-31T07:33:29.972Z,673.00
2022-12-31T07:34:29.913Z,670.00
2022-12-31T07:35:34.799Z,667.00
2022-12-31T07:36:30.764Z,663.00
2022-12-31T07:37:29.607Z,664.00
2022-12-31T07:38:29.562Z,664.00
2022-12-31T07:39:29.421Z,664.00
2022-12-31T07:40:29.364Z,667.00
2022-12-31T07:41:29.246Z,669.00
2022-12-31T07:42:29.181Z,672.00
2022-12-31T07:43:29.050Z,672.00
2022-12-31T07:44:29.007Z,675.00
2022-12-31T07:45:28.867Z,675.00
2022-12-31T07:46:28.818Z,675.00
2022-12-31T07:47:28.693Z,675.00
2022-12-31T07:48:28.642Z,675.00
2022-12-31T07:49:28.500Z,674.00
2022-12-31T07:50:28.415Z,674.00
2022-12-31T07:51:28.321Z,673.00
2022-12-31T07:52:28.267Z,672.00
2022-12-31T07:53:28.099Z,671.00
2022-12-31T07:54:28.059Z,671.00
2022-12-31T07:55:27.914Z,673.00
2022-12-31T07:56:27.836Z,672.00
2022-12-31T07:57:27.719Z,672.00
2022-12-31T07:58:27.658Z,673.00
2022-12-31T07:59:27.507Z,673.00
2022-12-31T08:00:27.449Z,676.00
2022-12-31T08:01:27.387Z,675.00
2022-12-31T08:02:27.336Z,676.00
2022-12-31T08:03:27.106Z,679.00
2022-12-31T08:04:27.047Z,677.00
2022-12-31T08:05:26.936Z,677.00
2022-12-31T08:06:26.881Z,678.00
2022-12-31T08:07:26.691Z,679.00
2022-12-31T08:08:26.645Z,678.00
2022-12-31T08:09:26.505Z,679.00
2022-12-31T08:10:26.549Z,681.00
2022-12-31T08:11:26.281Z,679.00
2022-12-31T08:12:26.207Z,677.00
2022-12-31T08:13:26.101Z,676.00
2022-12-31T08:14:26.038Z,674.00
2022-12-31T08:15:30.337Z,675.00
2022-12-31T08:16:25.945Z,674.00
2022-12-31T08:17:25.696Z,674.00
2022-12-31T08:18:25.639Z,677.00
2022-12-31T08:19:25.478Z,676.00
2022-12-31T08:20:25.441Z,674.00
2022-12-31T08:21:29.533Z,673.00
2022-12-31T08:22:26.216Z,673.00
2022-12-31T08:23:25.052Z,675.00
2022-12-31T08:24:25.018Z,675.00
2022-12-31T08:25:24.848Z,676.00
2022-12-31T08:26:24.833Z,676.00
2022-12-31T08:27:24.694Z,675.00
2022-12-31T08:28:24.610Z,672.00
2022-12-31T08:29:24.509Z,670.00
2022-12-31T08:30:24.432Z,668.00
2022-12-31T08:31:24.315Z,670.00
2022-12-31T08:32:24.234Z,670.00
2022-12-31T08:33:24.105Z,670.00
2022-12-31T08:34:24.056Z,669.00
2022-12-31T08:35:23.912Z,669.00
2022-12-31T08:36:23.872Z,671.00
2022-12-31T08:37:23.710Z,672.00
2022-12-31T08:38:23.649Z,672.00
2022-12-31T08:39:23.548Z,676.00
2022-12-31T08:40:23.497Z,675.00
2022-12-31T08:41:23.342Z,676.00
2022-12-31T08:42:23.261Z,676.00
2022-12-31T08:43:23.147Z,674.00
2022-12-31T08:44:23.091Z,673.00
2022-12-31T08:45:22.939Z,675.00
2022-12-31T08:46:22.897Z,676.00
2022-12-31T08:47:22.756Z,675.00
2022-12-31T08:48:22.715Z,678.00
2022-12-31T08:49:22.541Z,680.00
2022-12-31T08:50:22.513Z,679.00
2022-12-31T08:51:22.358Z,680.00
2022-12-31T08:52:22.329Z,679.00
2022-12-31T08:53:22.164Z,676.00
2022-12-31T08:54:22.088Z,675.00
2022-12-31T08:55:21.999Z,676.00
2022-12-31T08:56:21.930Z,676.00
2022-12-31T08:57:21.808Z,675.00
2022-12-31T08:58:21.761Z,674.00
2022-12-31T08:59:21.591Z,675.00
2022-12-31T09:00:21.571Z,677.00
2022-12-31T09:01:21.562Z,677.00
2022-12-31T09:02:21.389Z,678.00
2022-12-31T09:03:21.238Z,675.00
2022-12-31T09:04:21.201Z,672.00
2022-12-31T09:05:21.059Z,671.00
2022-12-31T09:06:21.005Z,668.00
2022-12-31T09:07:20.872Z,668.00
2022-12-31T09:08:20.832Z,670.00
2022-12-31T09:09:20.728Z,674.00
2022-12-31T09:10:20.652Z,673.00
2022-12-31T09:11:23.190Z,676.00
2022-12-31T09:12:20.456Z,676.00
2022-12-31T09:13:20.338Z,676.00
2022-12-31T09:14:20.304Z,676.00
2022-12-31T09:15:20.159Z,677.00
2022-12-31T09:16:20.132Z,677.00
2022-12-31T09:17:19.969Z,673.00
2022-12-31T09:18:19.896Z,673.00
2022-12-31T09:19:19.749Z,674.00
2022-12-31T09:20:19.713Z,675.00
2022-12-31T09:21:19.583Z,674.00
2022-12-31T09:22:19.527Z,674.00
2022-12-31T09:23:19.375Z,674.00
2022-12-31T09:24:19.311Z,676.00
2022-12-31T09:25:19.200Z,678.00
2022-12-31T09:26:19.156Z,680.00
2022-12-31T09:27:23.830Z,679.00
2022-12-31T09:28:19.947Z,677.00
2022-12-31T09:29:18.825Z,677.00
2022-12-31T09:30:18.773Z,678.00
2022-12-31T09:31:18.712Z,677.00
2022-12-31T09:32:18.579Z,677.00
2022-12-31T09:33:18.446Z,677.00
2022-12-31T09:34:18.389Z,675.00
2022-12-31T09:35:18.256Z,675.00
2022-12-31T09:36:18.224Z,678.00
2022-12-31T09:37:18.077Z,680.00
2022-12-31T09:38:18.030Z,682.00
2022-12-31T09:39:17.901Z,684.00
2022-12-31T09:40:17.825Z,685.00
2022-12-31T09:41:17.715Z,681.00
2022-12-31T09:42:17.628Z,681.00
2022-12-31T09:43:17.514Z,679.00
2022-12-31T09:44:17.479Z,679.00
2022-12-31T09:45:17.345Z,677.00
2022-12-31T09:46:17.301Z,677.00
2022-12-31T09:47:17.166Z,680.00
2022-12-31T09:48:17.111Z,682.00
2022-12-31T09:49:16.968Z,683.00
2022-12-31T09:50:16.904Z,680.00
2022-12-31T09:51:20.404Z,681.00
2022-12-31T09:52:17.751Z,679.00
2022-12-31T09:53:16.621Z,679.00
2022-12-31T09:54:16.563Z,680.00
2022-12-31T09:55:16.426Z,680.00
2022-12-31T09:56:16.387Z,680.00
2022-12-31T09:57:16.278Z,681.00
2022-12-31T09:58:16.191Z,681.00
2022-12-31T09:59:16.065Z,684.00
2022-12-31T10:00:15.991Z,682.00
2022-12-31T10:01:15.993Z,683.00
2022-12-31T10:02:15.977Z,684.00
2022-12-31T10:03:15.745Z,681.00
2022-12-31T10:04:15.617Z,682.00
2022-12-31T10:05:15.484Z,684.00
2022-12-31T10:06:15.408Z,686.00
2022-12-31T10:07:15.284Z,686.00
2022-12-31T10:08:15.205Z,688.00
2022-12-31T10:09:15.107Z,689.00
2022-12-31T10:10:15.047Z,690.00
2022-12-31T10:11:14.893Z,688.00
2022-12-31T10:12:14.865Z,688.00
2022-12-31T10:13:14.739Z,689.00
2022-12-31T10:14:14.663Z,687.00
2022-12-31T10:15:14.546Z,688.00
2022-12-31T10:16:14.456Z,687.00
2022-12-31T10:17:14.372Z,705.00
2022-12-31T10:18:14.288Z,704.00
2022-12-31T10:19:14.157Z,699.00
2022-12-31T10:20:14.104Z,700.00
2022-12-31T10:21:13.989Z,701.00
2022-12-31T10:22:13.909Z,729.00
2022-12-31T10:23:13.786Z,726.00
2022-12-31T10:24:13.704Z,723.00
2022-12-31T10:25:13.595Z,726.00
2022-12-31T10:26:13.546Z,731.00
2022-12-31T10:27:13.404Z,759.00
2022-12-31T10:28:13.348Z,776.00
2022-12-31T10:29:13.229Z,857.00
2022-12-31T10:30:13.209Z,892.00
2022-12-31T10:31:13.040Z,881.00
2022-12-31T10:32:12.951Z,903.00
2022-12-31T10:33:12.830Z,914.00
2022-12-31T10:34:12.768Z,908.00
2022-12-31T10:35:12.689Z,925.00
2022-12-31T10:36:12.621Z,914.00
2022-12-31T10:37:12.473Z,910.00
2022-12-31T10:38:12.434Z,908.00
2022-12-31T10:39:15.295Z,910.00
2022-12-31T10:40:12.246Z,918.00
2022-12-31T10:41:12.078Z,924.00
2022-12-31T10:42:12.033Z,922.00
2022-12-31T10:43:11.901Z,923.00
2022-12-31T10:44:11.852Z,928.00
2022-12-31T10:45:11.704Z,932.00
2022-12-31T10:46:11.702Z,935.00
2022-12-31T10:47:11.548Z,938.00
2022-12-31T10:48:11.439Z,940.00
2022-12-31T10:49:11.298Z,943.00
2022-12-31T10:50:11.251Z,946.00
2022-12-31T10:51:11.130Z,954.00
2022-12-31T10:52:11.054Z,957.00
2022-12-31T10:53:10.918Z,991.00
2022-12-31T10:54:10.861Z,1017.00
2022-12-31T10:55:10.730Z,1014.00
2022-12-31T10:56:10.652Z,1012.00
2022-12-31T10:57:10.499Z,1012.00
2022-12-31T10:58:10.454Z,1014.00
2022-12-31T10:59:10.327Z,1015.00
2022-12-31T11:00:10.291Z,1015.00
2022-12-31T11:01:10.194Z,1014.00
2022-12-31T11:02:10.207Z,1013.00
2022-12-31T11:03:09.926Z,1015.00
2022-12-31T11:04:09.839Z,1017.00
2022-12-31T11:05:09.710Z,1016.00
2022-12-31T11:06:09.638Z,1015.00
2022-12-31T11:07:09.460Z,1015.00
2022-12-31T11:08:09.407Z,1015.00
2022-12-31T11:09:09.271Z,1015.00
2022-12-31T11:10:09.220Z,1017.00
2022-12-31T11:11:09.069Z,1018.00
2022-12-31T11:12:09.009Z,1016.00
2022-12-31T11:13:08.870Z,1015.00
2022-12-31T11:14:08.827Z,1013.00
2022-12-31T11:15:08.652Z,1014.00
2022-12-31T11:16:08.674Z,1013.00
2022-12-31T11:17:08.460Z,1012.00
2022-12-31T11:18:08.411Z,1017.00
2022-12-31T11:19:08.241Z,1016.00
2022-12-31T11:20:08.174Z,1016.00
2022-12-31T11:21:08.082Z,1014.00
2022-12-31T11:22:08.008Z,1012.00
2022-12-31T11:23:07.857Z,1012.00
2022-12-31T11:24:07.809Z,1012.00
2022-12-31T11:25:07.662Z,1009.00
2022-12-31T11:26:07.616Z,1007.00
2022-12-31T11:27:07.470Z,1005.00
2022-12-31T11:28:07.382Z,1005.00
2022-12-31T11:29:07.286Z,1003.00
2022-12-31T11:30:07.210Z,1002.00
2022-12-31T11:31:07.097Z,1001.00
2022-12-31T11:32:06.991Z,1001.00
2022-12-31T11:33:06.880Z,1001.00
2022-12-31T11:34:06.807Z,999.00
2022-12-31T11:35:06.648Z,999.00
2022-12-31T11:36:06.572Z,1001.00
2022-12-31T11:37:06.450Z,1001.00
2022-12-31T11:38:06.348Z,1000.00
2022-12-31T11:39:06.260Z,996.00
2022-12-31T11:40:06.155Z,997.00
2022-12-31T11:41:06.017Z,995.00
2022-12-31T11:42:05.953Z,999.00
2022-12-31T11:43:05.832Z,999.00
2022-12-31T11:44:05.737Z,999.00
2022-12-31T11:45:05.610Z,999.00
2022-12-31T11:46:05.542Z,999.00
2022-12-31T11:47:05.393Z,999.00
2022-12-31T11:48:29.553Z,998.00
2022-12-31T11:49:06.206Z,997.00
2022-12-31T11:50:05.055Z,998.00
2022-12-31T11:51:05.014Z,1003.00
2022-12-31T11:52:04.876Z,1006.00
2022-12-31T11:53:04.772Z,1011.00
2022-12-31T11:54:04.658Z,1016.00
2022-12-31T11:55:04.597Z,1002.00
2022-12-31T11:56:04.439Z,893.00
2022-12-31T11:57:04.375Z,790.00
2022-12-31T11:58:04.248Z,747.00
2022-12-31T11:59:09.709Z,696.00
2022-12-31T12:00:05.122Z,686.00
2022-12-31T12:01:04.062Z,672.00
2022-12-31T12:02:03.935Z,638.00
2022-12-31T12:03:03.857Z,628.00
2022-12-31T12:04:03.796Z,606.00
2022-12-31T12:05:10.320Z,563.00
2022-12-31T12:06:04.605Z,529.00
2022-12-31T12:07:03.529Z,523.00
2022-12-31T12:08:03.467Z,522.00
2022-12-31T12:09:03.362Z,516.00
2022-12-31T12:10:03.290Z,508.00
2022-12-31T12:11:03.213Z,500.00
2022-12-31T12:12:03.167Z,450.00
2022-12-31T12:13:03.103Z,452.00
2022-12-31T12:14:03.051Z,455.00
2022-12-31T12:15:02.956Z,454.00
2022-12-31T12:16:02.976Z,454.00
2022-12-31T12:17:05.492Z,453.00
2022-12-31T12:18:02.786Z,460.00
2022-12-31T12:19:02.696Z,465.00
2022-12-31T12:20:02.669Z,465.00
2022-12-31T12:21:02.564Z,465.00
2022-12-31T12:22:02.526Z,464.00
2022-12-31T12:23:02.413Z,469.00
2022-12-31T12:24:02.360Z,473.00
2022-12-31T12:25:02.301Z,478.00
2022-12-31T12:26:02.264Z,478.00
2022-12-31T12:27:02.077Z,482.00
2022-12-31T12:28:02.005Z,487.00
2022-12-31T12:29:01.920Z,490.00
2022-12-31T12:30:01.857Z,491.00
2022-12-31T12:31:01.816Z,493.00
2022-12-31T12:32:01.668Z,492.00
2022-12-31T12:33:01.577Z,493.00
2022-12-31T12:34:01.529Z,496.00
2022-12-31T12:35:01.411Z,494.00
2022-12-31T12:36:01.347Z,494.00
2022-12-31T12:37:01.222Z,498.00
2022-12-31T12:38:01.157Z,501.00
2022-12-31T12:39:01.046Z,505.00
2022-12-31T12:40:01.155Z,504.00
2022-12-31T12:41:00.845Z,504.00
2022-12-31T12:42:00.765Z,505.00
2022-12-31T12:43:00.680Z,508.00
2022-12-31T12:44:00.599Z,509.00
2022-12-31T12:45:00.469Z,511.00
2022-12-31T12:46:00.421Z,516.00
2022-12-31T12:47:00.368Z,522.00
2022-12-31T12:48:00.351Z,535.00
2022-12-31T12:49:00.221Z,543.00
2022-12-31T12:50:00.126Z,544.00
2022-12-31T12:50:59.968Z,549.00
2022-12-31T12:51:59.845Z,549.00
2022-12-31T12:52:59.941Z,550.00
2022-12-31T12:53:59.667Z,549.00
2022-12-31T12:54:59.541Z,551.00
2022-12-31T12:55:59.486Z,554.00
2022-12-31T12:56:59.431Z,557.00
2022-12-31T12:57:59.277Z,561.00
2022-12-31T12:58:59.171Z,566.00
2022-12-31T12:59:59.066Z,569.00
2022-12-31T13:00:59.033Z,572.00
2022-12-31T13:01:59.018Z,574.00
2022-12-31T13:03:05.784Z,575.00
2022-12-31T13:04:59.700Z,580.00
2022-12-31T13:05:58.477Z,583.00
2022-12-31T13:06:58.384Z,584.00
2022-12-31T13:07:58.267Z,583.00
2022-12-31T13:08:58.224Z,584.00
2022-12-31T13:09:58.071Z,586.00
2022-12-31T13:10:58.021Z,588.00
2022-12-31T13:12:02.282Z,591.00
2022-12-31T13:13:23.444Z,605.00
2022-12-31T13:13:58.668Z,616.00
2022-12-31T13:14:57.631Z,620.00
2022-12-31T13:15:57.551Z,628.00
2022-12-31T13:16:57.381Z,630.00
2022-12-31T13:18:01.479Z,631.00
2022-12-31T13:18:57.220Z,631.00
2022-12-31T13:19:57.079Z,628.00
2022-12-31T13:20:56.999Z,628.00
2022-12-31T13:21:56.866Z,632.00